メインページ
METAR-TAF:

METAR-TAF

空港 :

大阪国際空港

大阪, 日本

緯度: 34-47N, 経度: 135-27E, 海抜: 12m

現時点の気象観測

当レポートは44分前の08:00(UTC)に作成
東/北東の風 11kt、北/北東からの間で変化する
気温 32°C
湿度 49%
気圧 1007 hPa
視程10km以上
高度3000ftの雲はほとんどない
千切れ雲あり

METAR: RJOO 200800Z 06011KT 030V090 9999 FEW030 BKN/// 32/20 Q1007 RMK 1CU030 A2976

時間: 17:44 (08:44 UTC)

予報

当レポートは3時間37分前の05:07(UTC)に作成
予報は20日の 06時(UTC)から 21日の 12時(UTC)まで有効
東/北東の風 12kt
視程10km以上
高度2500ftの雲はほとんどない
高度4000ftの雲は散在している

TAF: RJOO 200507Z 2006/2112 07012KT 9999 FEW025 SCT040

4,000以上の空港の気象観測と天気予報(METAR報とTAF報)

利用可能な観測所は地図上に黄色い丸と赤い丸で示す。

丸の上にカーソルを重ねると観測所名を参照できる。

次にクリックすると気象観測と天気予報を参照できる。

マップの切り替え:黒色「×」印の緑ボタンをクリックして拡大、「-」印の緑ボタンをクリックして縮小、緑色の三角印をクリックして隣りの地図に切り替え


METAR-TAF: